Time;durP1;ratioP1;P1;durP2;ratioP2;P2;SDS_P1;SDS_P2;PMS_P1;PMS_P2;Temp;Humidity;BMP_temperature;BMP_pressure;BME280_temperature;BME280_humidity;BME280_pressure;Samples;Min_cycle;Max_cycle;Signal;HPM_P1;HPM_P2
2022/12/11 00:01:55;;;;;;;11.38;7.70;;;19.60;30.70;;;;;;5049608;28;20033;-56
2022/12/11 00:04:21;;;;;;;10.73;6.93;;;19.60;30.70;;;;;;5052698;28;20115;-57
2022/12/11 00:06:49;;;;;;;11.98;7.10;;;19.50;30.80;;;;;;5055391;28;20108;-58
2022/12/11 00:09:16;;;;;;;11.52;7.10;;;19.50;30.90;;;;;;5053239;28;20099;-56
2022/12/11 00:11:42;;;;;;;10.63;7.07;;;19.50;30.80;;;;;;5034793;28;20049;-57
2022/12/11 00:14:08;;;;;;;11.98;7.80;;;19.60;30.90;;;;;;5033473;28;20044;-55
2022/12/11 00:16:34;;;;;;;12.98;8.07;;;19.50;30.80;;;;;;5053756;28;20367;-58
2022/12/11 00:19:00;;;;;;;13.13;7.70;;;19.50;30.90;;;;;;5053683;28;20041;-57
2022/12/11 00:21:26;;;;;;;12.52;8.05;;;19.50;30.90;;;;;;5051291;28;20017;-59
2022/12/11 00:23:52;;;;;;;13.93;8.48;;;19.50;30.90;;;;;;5044764;28;20040;-54
2022/12/11 00:26:17;;;;;;;13.82;8.00;;;19.50;30.90;;;;;;5054086;28;20025;-56
2022/12/11 00:28:44;;;;;;;13.88;8.00;;;19.50;30.90;;;;;;5048961;28;20078;-56
2022/12/11 00:31:15;;;;;;;12.50;8.10;;;19.50;30.90;;;;;;5036526;28;20051;-58
2022/12/11 00:33:42;;;;;;;13.20;8.05;;;19.40;31.50;;;;;;5042478;28;20133;-55
2022/12/11 00:36:27;;;;;;;13.63;8.25;;;19.40;30.90;;;;;;5050983;28;20032;-59
2022/12/11 00:38:53;;;;;;;12.55;7.85;;;19.50;31.00;;;;;;5027514;28;20049;-60
2022/12/11 00:41:19;;;;;;;13.30;8.20;;;19.40;30.90;;;;;;5054265;28;20075;-52
2022/12/11 00:43:45;;;;;;;13.90;8.38;;;19.40;31.00;;;;;;5037840;28;20033;-56
2022/12/11 00:46:12;;;;;;;13.38;8.50;;;19.40;31.00;;;;;;5052298;28;20036;-57
2022/12/11 00:48:38;;;;;;;12.65;8.20;;;19.40;31.00;;;;;;5053718;28;20141;-54
2022/12/11 00:51:05;;;;;;;14.30;8.75;;;19.40;31.00;;;;;;5052959;28;20029;-57
2022/12/11 00:53:31;;;;;;;12.77;7.63;;;19.40;31.10;;;;;;5049918;28;20115;-56
2022/12/11 00:55:56;;;;;;;13.00;8.57;;;19.40;31.10;;;;;;5052537;28;20179;-54
2022/12/11 00:58:22;;;;;;;13.13;8.13;;;19.40;31.10;;;;;;5052529;28;20036;-55
2022/12/11 01:00:51;;;;;;;14.82;8.68;;;19.30;31.00;;;;;;5035975;28;20188;-52
2022/12/11 01:03:18;;;;;;;12.68;8.23;;;19.30;31.10;;;;;;5044666;28;20523;-57
2022/12/11 01:05:51;;;;;;;13.18;8.07;;;19.30;31.10;;;;;;5050324;28;20471;-55
2022/12/11 01:08:17;;;;;;;12.93;8.48;;;19.30;31.10;;;;;;5016089;28;20095;-58
2022/12/11 01:10:43;;;;;;;14.63;8.48;;;19.30;31.10;;;;;;5053212;28;20111;-56
2022/12/11 01:13:10;;;;;;;12.90;8.32;;;19.30;31.10;;;;;;5052482;28;20115;-54
2022/12/11 01:15:42;;;;;;;14.35;8.32;;;19.30;31.80;;;;;;5054557;28;20551;-60
2022/12/11 01:18:09;;;;;;;12.27;7.63;;;19.30;31.20;;;;;;5057068;28;20032;-55
2022/12/11 01:20:38;;;;;;;14.93;8.00;;;19.30;31.20;;;;;;5058601;28;20063;-58
2022/12/11 01:23:04;;;;;;;13.45;7.95;;;19.30;31.30;;;;;;5057526;28;20334;-56
2022/12/11 01:25:32;;;;;;;14.57;8.82;;;19.30;31.30;;;;;;5039880;28;20037;-53
2022/12/11 01:27:57;;;;;;;12.60;8.13;;;19.20;31.20;;;;;;5055660;28;20025;-53
2022/12/11 01:30:24;;;;;;;12.82;8.23;;;19.20;31.20;;;;;;5058554;28;20455;-60
2022/12/11 01:32:51;;;;;;;11.50;7.88;;;19.20;31.20;;;;;;5056551;28;20033;-56
2022/12/11 01:35:17;;;;;;;13.38;8.63;;;19.20;31.20;;;;;;5038573;28;20471;-55
2022/12/11 01:37:43;;;;;;;13.13;8.55;;;19.20;31.20;;;;;;5046141;28;20344;-57
2022/12/11 01:40:13;;;;;;;11.98;8.35;;;19.20;31.20;;;;;;5057691;28;20403;-57
2022/12/11 01:42:39;;;;;;;11.80;7.85;;;19.20;31.20;;;;;;5039851;28;20127;-57
2022/12/11 01:45:25;;;;;;;13.70;8.95;;;19.20;31.20;;;;;;5057335;28;20410;-55
2022/12/11 01:47:57;;;;;;;13.10;8.80;;;19.20;31.30;;;;;;5050811;28;20060;-58
2022/12/11 01:50:24;;;;;;;12.43;8.05;;;19.20;31.30;;;;;;5054963;28;20120;-58
2022/12/11 01:52:50;;;;;;;12.50;7.90;;;19.20;31.30;;;;;;5056824;28;20028;-55
2022/12/11 01:55:17;;;;;;;12.27;7.88;;;19.20;31.40;;;;;;5040409;28;20030;-59
2022/12/11 01:57:45;;;;;;;14.98;8.35;;;19.20;31.40;;;;;;5055419;28;20043;-54
2022/12/11 02:00:12;;;;;;;11.65;7.88;;;19.10;31.40;;;;;;5055107;28;20029;-58
2022/12/11 02:02:43;;;;;;;12.05;8.18;;;19.10;31.40;;;;;;5053997;28;20420;-57
2022/12/11 02:05:09;;;;;;;11.95;8.18;;;19.10;31.50;;;;;;5049974;28;20025;-57
2022/12/11 02:07:45;;;;;;;14.10;8.52;;;19.10;31.50;;;;;;5056431;28;20509;-57
2022/12/11 02:10:11;;;;;;;12.90;8.23;;;19.10;31.50;;;;;;5054666;28;20043;-56
2022/12/11 02:12:58;;;;;;;14.20;8.45;;;19.10;31.50;;;;;;5055986;28;20056;-58
2022/12/11 02:15:41;;;;;;;12.40;7.97;;;19.10;31.50;;;;;;5045068;28;20028;-58
2022/12/11 02:18:24;;;;;;;13.30;8.50;;;19.10;31.50;;;;;;5037356;28;20040;-53
2022/12/11 02:21:02;;;;;;;10.77;7.50;;;19.10;31.50;;;;;;5055421;28;20407;-55
2022/12/11 02:23:36;;;;;;;13.15;8.57;;;19.10;31.50;;;;;;5017157;28;20032;-57
2022/12/11 02:26:12;;;;;;;12.32;7.95;;;19.10;31.60;;;;;;5056101;28;20475;-55
2022/12/11 02:28:45;;;;;;;14.88;8.32;;;19.10;31.60;;;;;;5055872;28;20033;-59
2022/12/11 02:31:16;;;;;;;13.07;8.43;;;19.00;31.50;;;;;;5053665;28;20364;-55
2022/12/11 02:34:05;;;;;;;13.43;8.35;;;19.00;31.60;;;;;;5044301;28;20025;-55
2022/12/11 02:36:37;;;;;;;12.55;8.43;;;19.00;31.60;;;;;;5057074;28;20108;-58
2022/12/11 02:39:04;;;;;;;13.68;8.55;;;19.00;31.60;;;;;;5054109;28;20029;-55
2022/12/11 02:41:32;;;;;;;13.70;8.52;;;19.00;31.60;;;;;;5055845;28;20052;-59
2022/12/11 02:44:00;;;;;;;14.55;9.07;;;19.00;31.60;;;;;;5038216;28;20072;-53
2022/12/11 02:46:27;;;;;;;11.35;8.20;;;19.00;31.70;;;;;;5042610;28;20102;-60
2022/12/11 02:48:54;;;;;;;16.27;9.13;;;19.00;31.70;;;;;;5053689;28;20029;-54
2022/12/11 02:51:28;;;;;;;13.85;8.63;;;19.00;32.30;;;;;;5040371;28;20021;-58
2022/12/11 02:53:57;;;;;;;15.75;9.57;;;19.00;31.70;;;;;;5054749;28;20033;-60
2022/12/11 02:56:32;;;;;;;12.75;8.45;;;19.00;31.80;;;;;;5053756;28;20106;-56
2022/12/11 02:59:07;;;;;;;13.43;8.82;;;19.00;31.80;;;;;;5054507;28;20061;-56
2022/12/11 03:01:33;;;;;;;13.30;8.80;;;19.00;31.80;;;;;;5054436;28;20037;-58
2022/12/11 03:03:59;;;;;;;14.02;8.93;;;18.90;31.70;;;;;;5051709;28;20024;-55
2022/12/11 03:06:35;;;;;;;15.18;10.00;;;18.90;31.70;;;;;;5038101;28;20108;-53
2022/12/11 03:09:03;;;;;;;14.75;9.40;;;18.90;31.80;;;;;;5039708;28;20093;-54
2022/12/11 03:11:29;;;;;;;14.90;8.90;;;18.90;31.80;;;;;;5053009;28;20037;-57
2022/12/11 03:13:55;;;;;;;14.73;9.43;;;18.90;31.80;;;;;;5053447;28;20078;-56
2022/12/11 03:16:34;;;;;;;12.32;8.13;;;18.90;31.80;;;;;;5056005;28;20040;-56
2022/12/11 03:19:23;;;;;;;13.82;9.35;;;18.90;31.80;;;;;;5034128;28;20033;-54
2022/12/11 03:21:59;;;;;;;14.32;9.40;;;18.90;31.80;;;;;;5056107;28;20432;-55
2022/12/11 03:24:37;;;;;;;14.65;9.25;;;18.90;31.90;;;;;;5055086;28;20037;-57
2022/12/11 03:27:16;;;;;;;12.88;8.23;;;18.90;31.90;;;;;;5055831;28;20048;-57
2022/12/11 03:29:56;;;;;;;13.30;9.02;;;18.90;31.90;;;;;;5054904;28;20025;-56
2022/12/11 03:32:28;;;;;;;12.85;8.93;;;18.80;31.80;;;;;;5038870;28;20113;-57
2022/12/11 03:35:05;;;;;;;13.07;9.13;;;18.80;31.90;;;;;;5044014;28;20029;-52
2022/12/11 03:37:36;;;;;;;12.40;8.73;;;18.80;31.90;;;;;;5036458;28;20053;-56
2022/12/11 03:40:08;;;;;;;16.10;9.82;;;18.80;31.90;;;;;;5035440;28;20029;-57
2022/12/11 03:42:35;;;;;;;15.10;9.77;;;18.80;31.90;;;;;;5018220;28;20365;-54
2022/12/11 03:45:03;;;;;;;14.75;9.25;;;18.80;32.00;;;;;;5035601;28;20079;-57
2022/12/11 03:47:31;;;;;;;14.98;9.77;;;18.80;32.00;;;;;;5042197;28;20028;-55
2022/12/11 03:49:59;;;;;;;14.93;9.30;;;18.80;32.00;;;;;;5055569;28;20033;-57
2022/12/11 03:52:27;;;;;;;16.08;9.35;;;18.80;32.00;;;;;;5051281;28;20030;-55
2022/12/11 03:54:56;;;;;;;13.90;9.32;;;18.80;32.00;;;;;;5035113;28;20352;-56
2022/12/11 03:57:25;;;;;;;14.43;9.32;;;18.80;32.00;;;;;;5053338;28;20110;-56
2022/12/11 03:59:51;;;;;;;15.25;9.52;;;18.80;32.00;;;;;;5054180;28;20456;-54
2022/12/11 04:02:17;;;;;;;13.32;8.88;;;18.80;32.00;;;;;;5051277;28;20025;-56
2022/12/11 04:04:43;;;;;;;14.38;9.30;;;18.70;32.00;;;;;;5051034;28;20360;-55
2022/12/11 04:07:08;;;;;;;15.00;9.25;;;18.70;32.00;;;;;;5054138;28;20033;-56
2022/12/11 04:09:35;;;;;;;14.65;10.07;;;18.70;32.00;;;;;;5022172;28;20039;-58
2022/12/11 04:12:00;;;;;;;15.68;9.27;;;18.70;32.00;;;;;;5054805;28;20463;-56
2022/12/11 04:17:11;;;;;;;16.13;10.27;;;18.80;32.10;;;;;;5053368;28;20029;-60
2022/12/11 04:25:06;;;;;;;14.50;9.13;;;18.70;32.10;;;;;;5052695;28;20071;-54
2022/12/11 04:27:47;;;;;;;15.30;10.40;;;18.70;32.10;;;;;;5055369;28;20029;-54
2022/12/11 04:30:20;;;;;;;14.90;9.43;;;18.70;32.10;;;;;;5054076;28;20029;-56
2022/12/11 04:32:46;;;;;;;14.63;9.65;;;18.70;32.10;;;;;;5052932;28;20052;-59
2022/12/11 04:35:12;;;;;;;15.38;10.05;;;18.70;32.10;;;;;;5050107;28;20456;-57
2022/12/11 04:37:38;;;;;;;16.05;9.75;;;18.70;32.10;;;;;;5054755;28;20032;-58
2022/12/11 04:40:07;;;;;;;15.50;10.27;;;18.60;32.10;;;;;;5052148;28;20106;-56
2022/12/11 04:42:33;;;;;;;14.57;9.55;;;18.70;32.20;;;;;;5037627;28;20030;-56
2022/12/11 04:44:59;;;;;;;14.88;9.98;;;18.70;32.10;;;;;;5046302;28;20116;-55
2022/12/11 04:47:24;;;;;;;14.98;9.60;;;18.70;32.20;;;;;;5052174;28;20516;-59
2022/12/11 04:49:50;;;;;;;14.82;10.00;;;18.60;32.10;;;;;;5053322;28;20108;-54
2022/12/11 04:52:17;;;;;;;14.65;9.75;;;18.60;32.10;;;;;;5044755;28;20052;-55
2022/12/11 04:54:43;;;;;;;14.82;9.88;;;18.60;32.10;;;;;;5049273;28;20033;-54
2022/12/11 04:57:09;;;;;;;17.75;10.82;;;18.60;32.20;;;;;;5043509;28;20036;-59
2022/12/11 04:59:36;;;;;;;15.55;10.60;;;18.60;32.10;;;;;;5053798;28;20032;-56
2022/12/11 05:02:02;;;;;;;14.65;9.70;;;18.60;32.20;;;;;;5047539;28;20042;-56
2022/12/11 05:04:33;;;;;;;15.60;10.02;;;18.60;32.20;;;;;;5052238;28;20029;-55
2022/12/11 05:06:59;;;;;;;14.23;9.82;;;18.60;32.20;;;;;;5033821;28;20055;-58
2022/12/11 05:09:25;;;;;;;16.55;10.07;;;18.60;32.20;;;;;;5053932;28;20051;-57
2022/12/11 05:11:52;;;;;;;13.50;10.00;;;18.60;32.20;;;;;;5054410;28;20057;-54
2022/12/11 05:14:18;;;;;;;15.18;9.60;;;18.60;32.20;;;;;;5053426;28;20025;-57
2022/12/11 05:16:44;;;;;;;13.50;9.43;;;18.60;32.20;;;;;;5045084;28;20456;-53
2022/12/11 05:19:10;;;;;;;14.52;9.75;;;18.60;32.20;;;;;;5039789;28;20046;-56
2022/12/11 05:21:35;;;;;;;15.00;9.57;;;18.60;32.20;;;;;;5042632;28;20033;-56
2022/12/11 05:24:02;;;;;;;14.30;9.80;;;18.60;32.20;;;;;;5036841;28;20036;-57
2022/12/11 05:26:28;;;;;;;13.38;9.85;;;18.60;32.20;;;;;;5044218;28;20029;-55
2022/12/11 05:28:54;;;;;;;14.07;9.57;;;18.60;32.20;;;;;;5035604;28;20040;-55
2022/12/11 05:31:23;;;;;;;12.02;8.55;;;18.60;32.20;;;;;;5054075;28;20029;-59
2022/12/11 05:33:50;;;;;;;12.88;9.38;;;18.50;32.10;;;;;;5053406;28;20029;-52
2022/12/11 05:36:24;;;;;;;12.02;8.60;;;18.60;32.20;;;;;;5046229;28;20018;-55
2022/12/11 05:38:51;;;;;;;12.13;8.90;;;18.50;32.10;;;;;;5034254;28;20057;-57
2022/12/11 05:41:20;;;;;;;13.88;9.05;;;18.50;32.10;;;;;;5034823;28;20408;-58
2022/12/11 05:43:47;;;;;;;11.05;8.13;;;18.50;32.10;;;;;;5034654;28;20068;-56
2022/12/11 05:46:19;;;;;;;11.55;8.60;;;18.50;32.10;;;;;;5037471;28;20115;-54
2022/12/11 05:48:48;;;;;;;10.48;7.95;;;18.50;32.10;;;;;;5042597;28;20116;-57
2022/12/11 05:51:15;;;;;;;10.75;8.02;;;18.50;32.00;;;;;;5016806;28;20018;-53
2022/12/11 05:53:42;;;;;;;12.55;8.30;;;18.50;32.10;;;;;;5033894;28;20026;-58
2022/12/11 05:56:13;;;;;;;11.85;8.05;;;18.50;32.10;;;;;;5047292;28;20029;-55
2022/12/11 05:58:40;;;;;;;12.63;8.43;;;18.50;32.00;;;;;;5055263;28;20566;-56
2022/12/11 06:01:11;;;;;;;10.30;8.07;;;18.50;32.00;;;;;;5043054;28;20040;-56
2022/12/11 06:03:38;;;;;;;11.60;8.10;;;18.50;32.00;;;;;;5054360;28;20408;-57
2022/12/11 06:06:05;;;;;;;11.32;8.43;;;18.50;32.00;;;;;;5041343;28;20018;-58
2022/12/11 06:08:31;;;;;;;12.20;8.82;;;18.50;32.00;;;;;;5044112;28;20037;-55
2022/12/11 06:10:57;;;;;;;12.05;7.88;;;18.50;32.00;;;;;;5054511;28;20467;-57
2022/12/11 06:13:23;;;;;;;13.07;8.68;;;18.50;32.00;;;;;;5056846;28;20127;-58
2022/12/11 06:15:49;;;;;;;12.13;8.57;;;18.50;32.00;;;;;;5055714;28;20068;-59
2022/12/11 06:18:15;;;;;;;12.75;8.68;;;18.50;32.00;;;;;;5048392;28;20041;-56
2022/12/11 06:20:41;;;;;;;12.18;8.82;;;18.40;32.00;;;;;;5038654;28;20183;-56
2022/12/11 06:23:07;;;;;;;10.93;8.15;;;18.50;32.10;;;;;;5055507;28;20079;-56
2022/12/11 06:25:33;;;;;;;10.43;8.00;;;18.50;32.10;;;;;;5041534;28;20040;-59
2022/12/11 06:27:58;;;;;;;10.48;7.50;;;18.50;32.10;;;;;;5054696;28;20037;-56
2022/12/11 06:30:24;;;;;;;10.68;7.72;;;18.50;32.10;;;;;;5055909;28;20043;-54
2022/12/11 06:32:50;;;;;;;9.40;7.43;;;18.40;32.00;;;;;;5049480;28;20025;-58
2022/12/11 06:35:16;;;;;;;9.23;7.25;;;18.40;32.00;;;;;;5048290;28;20022;-58
2022/12/11 06:37:42;;;;;;;10.48;7.70;;;18.40;31.90;;;;;;5042180;28;20029;-57
2022/12/11 06:40:11;;;;;;;9.45;7.60;;;18.40;31.90;;;;;;5035430;28;20036;-61
2022/12/11 06:42:37;;;;;;;9.85;7.95;;;18.40;31.90;;;;;;5054602;28;20103;-53
2022/12/11 06:45:04;;;;;;;11.35;8.00;;;18.40;31.90;;;;;;5054887;28;20025;-58
2022/12/11 06:47:30;;;;;;;9.75;7.43;;;18.40;31.90;;;;;;5036724;28;20024;-55
2022/12/11 06:49:56;;;;;;;9.00;6.85;;;18.40;32.00;;;;;;5053821;28;20059;-55
2022/12/11 06:52:23;;;;;;;9.27;7.40;;;18.40;32.00;;;;;;5048207;28;20473;-56
2022/12/11 06:54:50;;;;;;;8.50;6.70;;;18.40;32.00;;;;;;5040310;28;20034;-56
2022/12/11 06:57:17;;;;;;;9.40;7.45;;;18.40;31.90;;;;;;5053830;28;20028;-55
2022/12/11 06:59:43;;;;;;;8.43;6.50;;;18.40;31.90;;;;;;5055501;28;20360;-56
2022/12/11 07:02:12;;;;;;;9.38;6.60;;;18.40;31.80;;;;;;5055114;28;20043;-56
2022/12/11 07:04:38;;;;;;;8.82;6.20;;;18.40;31.80;;;;;;5052126;28;20533;-54
2022/12/11 07:07:04;;;;;;;7.55;6.10;;;18.40;31.80;;;;;;5054422;28;20111;-59
2022/12/11 07:09:30;;;;;;;8.15;6.30;;;18.40;31.80;;;;;;5040674;28;20032;-59
2022/12/11 07:11:56;;;;;;;9.70;6.22;;;18.40;31.80;;;;;;5054417;28;20068;-58
2022/12/11 07:14:21;;;;;;;7.20;6.10;;;18.40;31.90;;;;;;5032940;28;20033;-54
2022/12/11 07:16:47;;;;;;;6.32;5.03;;;18.40;31.90;;;;;;5052578;28;20063;-58
2022/12/11 07:19:13;;;;;;;7.50;5.60;;;18.40;32.00;;;;;;5049200;28;20364;-54
2022/12/11 07:21:39;;;;;;;7.05;5.68;;;18.40;32.20;;;;;;5053454;28;20029;-55
2022/12/11 07:24:06;;;;;;;6.90;5.70;;;18.40;32.20;;;;;;5051859;28;20099;-58
2022/12/11 07:26:33;;;;;;;6.07;5.10;;;18.40;32.20;;;;;;5018131;28;20060;-59
2022/12/11 07:28:59;;;;;;;6.63;5.00;;;18.40;32.30;;;;;;5049557;28;20444;-56
2022/12/11 07:31:29;;;;;;;5.97;4.75;;;18.40;32.40;;;;;;5051977;28;20364;-58
2022/12/11 07:34:02;;;;;;;6.30;4.20;;;18.40;32.50;;;;;;5024926;28;20396;-57
2022/12/11 07:36:28;;;;;;;5.18;4.07;;;18.40;32.70;;;;;;5036937;28;20041;-58
2022/12/11 07:38:54;;;;;;;5.90;4.07;;;18.40;32.70;;;;;;5036206;28;20029;-56
2022/12/11 07:41:22;;;;;;;5.00;4.03;;;18.50;32.80;;;;;;5054493;28;20103;-55
2022/12/11 07:43:53;;;;;;;7.32;4.22;;;18.50;32.90;;;;;;5036631;28;20031;-57
2022/12/11 07:46:22;;;;;;;4.47;3.50;;;18.60;33.00;;;;;;5053015;28;20029;-57
2022/12/11 07:48:48;;;;;;;4.40;3.38;;;18.60;32.90;;;;;;5049937;28;20060;-54
2022/12/11 07:51:25;;;;;;;4.28;3.25;;;18.70;32.90;;;;;;5039125;28;20036;-58
2022/12/11 07:53:52;;;;;;;5.00;3.50;;;18.80;32.90;;;;;;5054352;28;20464;-58
2022/12/11 07:56:18;;;;;;;4.80;3.50;;;18.80;32.90;;;;;;5037395;28;20440;-57
2022/12/11 07:58:45;;;;;;;5.45;3.58;;;18.90;32.90;;;;;;5053682;28;20352;-56
2022/12/11 08:01:17;;;;;;;4.95;3.42;;;19.00;32.90;;;;;;5052678;28;20021;-57
2022/12/11 08:03:44;;;;;;;4.00;3.00;;;19.00;32.80;;;;;;5052431;28;20029;-54
2022/12/11 08:06:10;;;;;;;3.78;3.05;;;19.10;32.80;;;;;;5052226;28;20029;-60
2022/12/11 08:08:36;;;;;;;4.55;3.60;;;19.10;32.80;;;;;;5052601;28;20101;-56
2022/12/11 08:11:04;;;;;;;4.30;3.38;;;19.20;33.50;;;;;;5043289;28;20380;-56
2022/12/11 08:13:30;;;;;;;5.30;3.40;;;19.30;32.90;;;;;;5052699;28;20123;-52
2022/12/11 08:15:55;;;;;;;4.78;3.53;;;19.30;32.70;;;;;;5054886;28;20483;-56
2022/12/11 08:18:22;;;;;;;3.67;2.83;;;19.40;32.60;;;;;;5026886;28;20038;-57
2022/12/11 08:20:48;;;;;;;3.95;2.67;;;19.50;32.60;;;;;;5035090;28;20033;-56
2022/12/11 08:23:14;;;;;;;4.22;3.30;;;19.50;32.40;;;;;;5034714;28;20030;-58
2022/12/11 08:25:39;;;;;;;4.03;3.20;;;19.60;32.40;;;;;;5052854;28;20327;-53
2022/12/11 08:28:05;;;;;;;6.90;3.03;;;19.70;32.30;;;;;;5055083;28;20384;-54
2022/12/11 08:30:32;;;;;;;4.30;2.83;;;19.80;32.20;;;;;;5054594;28;20056;-55
2022/12/11 08:32:58;;;;;;;4.05;2.90;;;19.80;32.10;;;;;;5043544;28;20049;-58
2022/12/11 08:35:25;;;;;;;3.80;2.80;;;19.90;32.00;;;;;;5020379;28;20017;-56
2022/12/11 08:37:51;;;;;;;4.82;2.75;;;19.90;31.90;;;;;;5032506;28;20455;-59
2022/12/11 08:40:17;;;;;;;4.03;2.95;;;20.00;31.80;;;;;;5054548;28;20128;-58
2022/12/11 08:42:43;;;;;;;4.32;3.20;;;20.10;31.70;;;;;;5037479;28;20101;-59
2022/12/11 08:45:09;;;;;;;3.75;2.75;;;20.10;31.70;;;;;;5052354;28;20452;-58
2022/12/11 08:47:35;;;;;;;3.20;2.47;;;20.20;31.70;;;;;;5050657;28;20036;-58
2022/12/11 08:50:01;;;;;;;5.10;3.05;;;20.20;31.60;;;;;;5055263;28;20033;-55
2022/12/11 08:52:27;;;;;;;4.90;2.97;;;20.30;31.60;;;;;;5053590;28;20498;-59
2022/12/11 08:54:53;;;;;;;3.50;2.55;;;20.30;31.50;;;;;;5032268;28;20124;-60
2022/12/11 08:57:19;;;;;;;5.53;2.63;;;20.40;32.10;;;;;;5053832;28;20444;-59
2022/12/11 08:59:46;;;;;;;3.60;2.70;;;20.40;31.40;;;;;;5053424;28;20057;-58
2022/12/11 09:02:12;;;;;;;4.57;2.70;;;20.50;31.30;;;;;;5050172;28;20028;-57
2022/12/11 09:04:38;;;;;;;4.43;2.63;;;20.50;31.20;;;;;;5052047;28;20040;-59
2022/12/11 09:07:04;;;;;;;3.80;2.92;;;20.60;31.20;;;;;;5052377;28;20021;-60
2022/12/11 09:09:30;;;;;;;4.35;2.55;;;20.60;31.10;;;;;;5047871;28;20091;-58
2022/12/11 09:11:55;;;;;;;4.60;2.70;;;20.70;31.10;;;;;;5054011;28;20466;-55
2022/12/11 09:14:22;;;;;;;3.22;2.60;;;20.70;31.00;;;;;;5053974;28;20033;-54
2022/12/11 09:16:48;;;;;;;3.70;2.40;;;20.70;30.90;;;;;;5053833;28;20029;-54
2022/12/11 09:19:14;;;;;;;5.28;2.90;;;20.80;31.10;;;;;;5054057;28;20107;-51
2022/12/11 09:21:41;;;;;;;5.65;3.10;;;20.80;31.30;;;;;;5048636;28;20322;-53
2022/12/11 09:24:09;;;;;;;4.00;2.80;;;20.90;31.40;;;;;;5025518;28;20036;-57
2022/12/11 09:26:35;;;;;;;4.88;3.05;;;21.00;31.50;;;;;;5048805;28;20030;-55
2022/12/11 09:29:03;;;;;;;5.43;3.00;;;21.00;31.50;;;;;;5052990;28;20100;-55
2022/12/11 09:31:31;;;;;;;5.97;3.40;;;21.00;31.40;;;;;;5052830;28;20508;-56
2022/12/11 09:34:00;;;;;;;5.40;2.92;;;21.10;31.50;;;;;;5040782;28;20025;-56
2022/12/11 09:36:26;;;;;;;4.18;2.72;;;21.20;31.50;;;;;;5041370;28;20056;-54
2022/12/11 09:38:52;;;;;;;5.75;3.00;;;21.10;31.30;;;;;;5058081;28;20033;-54
2022/12/11 09:41:21;;;;;;;4.82;3.10;;;21.20;31.30;;;;;;5058302;28;20025;-52
2022/12/11 09:44:00;;;;;;;5.97;3.38;;;21.20;31.10;;;;;;5046452;28;20352;-54
2022/12/11 09:46:26;;;;;;;4.13;2.72;;;21.20;31.00;;;;;;5053139;28;20028;-55
2022/12/11 09:48:53;;;;;;;4.72;2.97;;;21.30;31.00;;;;;;5040185;28;20043;-56
2022/12/11 09:51:27;;;;;;;4.07;2.72;;;21.30;30.80;;;;;;5056723;28;20456;-55
2022/12/11 09:53:55;;;;;;;5.00;3.08;;;21.30;30.70;;;;;;5054661;28;20029;-54
2022/12/11 09:56:45;;;;;;;5.38;2.88;;;21.30;30.60;;;;;;5057981;28;20032;-53
2022/12/11 09:59:42;;;;;;;5.43;3.00;;;21.30;30.60;;;;;;5038027;28;20045;-57
2022/12/11 10:02:53;;;;;;;3.90;2.75;;;21.30;30.50;;;;;;5053653;28;20032;-56
2022/12/11 10:05:29;;;;;;;4.20;2.80;;;21.30;30.40;;;;;;5028247;28;20072;-56
2022/12/11 10:08:16;;;;;;;4.18;2.92;;;21.30;31.00;;;;;;5044246;28;20025;-54
2022/12/11 10:10:53;;;;;;;4.88;3.22;;;21.40;30.40;;;;;;5036065;28;20069;-52
2022/12/11 10:13:32;;;;;;;4.65;2.78;;;21.30;30.30;;;;;;5040459;28;20044;-54
2022/12/11 10:16:39;;;;;;;4.47;2.90;;;21.30;30.30;;;;;;5056320;28;20056;-51
2022/12/11 10:19:17;;;;;;;3.95;2.53;;;21.30;30.40;;;;;;5040787;28;20045;-51
2022/12/11 10:21:44;;;;;;;3.58;2.45;;;21.30;30.30;;;;;;5054567;28;20094;-53
2022/12/11 10:24:43;;;;;;;8.25;2.97;;;21.30;30.30;;;;;;5053504;28;20384;-54
2022/12/11 10:27:22;;;;;;;4.20;2.55;;;21.30;30.30;;;;;;5039707;28;20028;-55
2022/12/11 10:30:10;;;;;;;4.72;2.97;;;21.30;30.30;;;;;;5057206;28;20032;-57
2022/12/11 10:33:04;;;;;;;5.07;2.53;;;21.30;30.20;;;;;;5056735;28;20094;-53
2022/12/11 10:35:51;;;;;;;4.47;3.05;;;21.30;30.20;;;;;;5042365;28;20440;-56
2022/12/11 10:38:29;;;;;;;5.60;2.72;;;21.20;30.10;;;;;;5055983;28;20349;-53
2022/12/11 10:41:05;;;;;;;7.78;2.75;;;21.20;30.20;;;;;;5049093;28;20029;-55
2022/12/11 10:43:40;;;;;;;4.78;2.80;;;21.20;30.20;;;;;;5056192;28;20029;-55
2022/12/11 10:46:20;;;;;;;3.50;2.58;;;21.20;30.30;;;;;;5056791;28;20028;-55
2022/12/11 10:48:52;;;;;;;4.32;2.70;;;21.20;30.30;;;;;;5054240;28;20029;-59
2022/12/11 10:51:21;;;;;;;4.72;2.85;;;21.20;30.30;;;;;;5036715;28;20412;-56
2022/12/11 10:53:56;;;;;;;3.85;2.60;;;21.10;30.40;;;;;;5034396;28;20068;-53
2022/12/11 10:56:30;;;;;;;3.22;2.38;;;21.20;30.70;;;;;;5056299;28;20128;-54
2022/12/11 10:58:57;;;;;;;3.72;2.45;;;21.10;30.80;;;;;;5056378;28;20088;-56
2022/12/11 11:01:26;;;;;;;4.03;2.63;;;21.20;31.00;;;;;;5044726;28;20036;-53
2022/12/11 11:04:10;;;;;;;4.40;2.70;;;21.10;31.00;;;;;;5038002;28;20033;-51
2022/12/11 11:06:36;;;;;;;5.90;2.60;;;21.20;31.00;;;;;;5056256;28;20021;-54
2022/12/11 11:09:02;;;;;;;3.15;2.17;;;21.20;31.10;;;;;;5029282;28;20052;-56
2022/12/11 11:11:49;;;;;;;4.25;2.20;;;21.20;31.40;;;;;;5042422;28;20024;-57
2022/12/11 11:14:18;;;;;;;3.58;2.53;;;21.10;31.50;;;;;;5054322;28;20048;-55
2022/12/11 11:16:46;;;;;;;2.90;2.22;;;21.20;31.70;;;;;;5056025;28;20025;-49
2022/12/11 11:19:33;;;;;;;3.40;2.47;;;21.20;31.80;;;;;;5056164;28;20033;-56
2022/12/11 11:22:08;;;;;;;3.55;2.13;;;21.20;31.80;;;;;;5055136;28;20028;-53
2022/12/11 11:24:56;;;;;;;3.22;2.40;;;21.20;31.90;;;;;;5047017;28;20071;-50
2022/12/11 11:27:34;;;;;;;3.22;2.25;;;21.20;31.80;;;;;;5055046;28;20082;-50
2022/12/11 11:30:07;;;;;;;2.97;2.17;;;21.30;31.80;;;;;;5056229;28;20044;-52
2022/12/11 11:32:38;;;;;;;3.47;2.40;;;21.20;31.60;;;;;;5055763;28;20340;-52
2022/12/11 11:35:10;;;;;;;6.03;2.30;;;21.30;31.50;;;;;;5038724;28;20041;-49
2022/12/11 11:37:44;;;;;;;2.78;1.90;;;21.30;31.40;;;;;;5041324;28;20413;-53
2022/12/11 11:40:39;;;;;;;3.17;2.13;;;21.30;31.30;;;;;;5051308;28;20033;-52
2022/12/11 11:43:35;;;;;;;2.90;2.13;;;21.30;31.10;;;;;;5051671;28;20067;-52
2022/12/11 11:46:36;;;;;;;3.20;2.13;;;21.30;31.10;;;;;;5055025;28;20391;-55
2022/12/11 11:49:19;;;;;;;5.07;2.63;;;21.30;31.00;;;;;;5048056;28;20056;-53
2022/12/11 11:52:01;;;;;;;4.65;2.28;;;21.30;31.00;;;;;;5038641;28;20459;-55
2022/12/11 11:55:08;;;;;;;5.95;2.30;;;21.30;30.90;;;;;;5054809;28;20101;-53
2022/12/11 11:57:54;;;;;;;3.03;2.25;;;21.30;30.90;;;;;;5045066;28;20025;-51
2022/12/11 12:00:26;;;;;;;4.43;2.10;;;21.30;30.80;;;;;;5043499;28;20047;-50
2022/12/11 12:02:58;;;;;;;3.78;2.45;;;21.40;30.90;;;;;;5055333;28;20044;-51
2022/12/11 12:05:42;;;;;;;2.55;2.00;;;21.40;30.80;;;;;;5049692;28;20036;-52
2022/12/11 12:08:43;;;;;;;3.40;2.10;;;21.40;30.80;;;;;;5035168;28;20429;-52
2022/12/11 12:11:18;;;;;;;4.38;2.55;;;21.40;30.70;;;;;;5035487;28;20110;-52
2022/12/11 12:13:50;;;;;;;4.55;2.60;;;21.40;30.70;;;;;;5047561;28;20055;-49
2022/12/11 12:16:34;;;;;;;3.78;2.42;;;21.40;30.60;;;;;;5053647;28;20079;-52
2022/12/11 12:19:12;;;;;;;3.35;2.40;;;21.40;30.60;;;;;;5038023;28;20112;-54
2022/12/11 12:21:43;;;;;;;3.97;2.60;;;21.40;30.70;;;;;;5018621;28;20367;-51
2022/12/11 12:24:24;;;;;;;3.13;2.50;;;21.50;31.00;;;;;;5044109;28;20047;-52
2022/12/11 12:27:15;;;;;;;3.13;2.30;;;21.50;31.10;;;;;;5047470;28;20095;-50
2022/12/11 12:30:13;;;;;;;2.90;2.17;;;21.50;31.30;;;;;;5052768;28;20119;-52
2022/12/11 12:32:52;;;;;;;3.80;2.17;;;21.50;31.20;;;;;;5042144;28;20036;-55
2022/12/11 12:35:36;;;;;;;3.35;2.15;;;21.50;31.10;;;;;;5039470;28;20037;-51
2022/12/11 12:38:08;;;;;;;6.93;2.58;;;21.50;31.00;;;;;;5054410;28;20501;-54
2022/12/11 12:41:02;;;;;;;4.07;2.47;;;21.50;30.90;;;;;;5052440;28;20116;-54
2022/12/11 12:43:34;;;;;;;6.22;2.60;;;21.40;30.80;;;;;;5023484;28;20040;-53
2022/12/11 12:46:36;;;;;;;2.97;2.22;;;21.40;30.80;;;;;;5037443;28;20056;-56
2022/12/11 12:49:03;;;;;;;2.75;2.17;;;21.40;30.70;;;;;;5054431;28;20035;-55
2022/12/11 12:51:29;;;;;;;4.55;2.30;;;21.40;30.70;;;;;;5053562;28;20024;-56
2022/12/11 12:54:02;;;;;;;3.40;2.70;;;21.40;30.60;;;;;;5053202;28;20029;-54
2022/12/11 12:56:30;;;;;;;3.47;2.22;;;21.40;30.50;;;;;;5053207;28;20041;-53
2022/12/11 12:58:56;;;;;;;5.22;2.72;;;21.40;30.60;;;;;;5023953;28;20334;-50
2022/12/11 13:01:26;;;;;;;4.60;2.72;;;21.40;30.60;;;;;;5051014;28;20078;-55
2022/12/11 13:04:04;;;;;;;2.50;1.90;;;21.40;30.50;;;;;;5048439;28;20072;-52
2022/12/11 13:06:44;;;;;;;3.17;2.50;;;21.30;30.50;;;;;;5037719;28;20033;-52
2022/12/11 13:09:25;;;;;;;3.42;2.42;;;21.30;30.50;;;;;;5053315;28;20063;-49